sensor_id;sensor_type;location;lat;lon;timestamp;P1;durP1;ratioP1;P2;durP2;ratioP2
83761;SDS011;73752;49.594;8.734;2023-11-22T00:02:17;8.45;;;5.68;;
83761;SDS011;73752;49.594;8.734;2023-11-22T00:04:43;8.02;;;5.53;;
83761;SDS011;73752;49.594;8.734;2023-11-22T00:07:08;8.52;;;5.70;;
83761;SDS011;73752;49.594;8.734;2023-11-22T00:09:33;11.25;;;5.55;;
83761;SDS011;73752;49.594;8.734;2023-11-22T00:11:59;9.07;;;5.03;;
83761;SDS011;73752;49.594;8.734;2023-11-22T00:14:25;10.73;;;4.90;;
83761;SDS011;73752;49.594;8.734;2023-11-22T00:16:51;8.00;;;5.82;;
83761;SDS011;73752;49.594;8.734;2023-11-22T00:19:16;8.38;;;5.78;;
83761;SDS011;73752;49.594;8.734;2023-11-22T00:21:43;11.63;;;6.72;;
83761;SDS011;73752;49.594;8.734;2023-11-22T00:24:10;8.32;;;5.82;;
83761;SDS011;73752;49.594;8.734;2023-11-22T00:26:35;7.93;;;5.05;;
83761;SDS011;73752;49.594;8.734;2023-11-22T00:29:00;7.43;;;5.75;;
83761;SDS011;73752;49.594;8.734;2023-11-22T00:31:26;8.90;;;5.47;;
83761;SDS011;73752;49.594;8.734;2023-11-22T00:33:51;10.45;;;5.05;;
83761;SDS011;73752;49.594;8.734;2023-11-22T00:36:16;7.97;;;5.25;;
83761;SDS011;73752;49.594;8.734;2023-11-22T00:38:42;8.40;;;5.63;;
83761;SDS011;73752;49.594;8.734;2023-11-22T00:41:07;10.02;;;5.40;;
83761;SDS011;73752;49.594;8.734;2023-11-22T00:43:33;9.98;;;6.10;;
83761;SDS011;73752;49.594;8.734;2023-11-22T00:45:58;8.55;;;5.80;;
83761;SDS011;73752;49.594;8.734;2023-11-22T00:48:24;8.77;;;5.57;;
83761;SDS011;73752;49.594;8.734;2023-11-22T00:50:49;8.40;;;5.47;;
83761;SDS011;73752;49.594;8.734;2023-11-22T00:53:15;7.68;;;4.97;;
83761;SDS011;73752;49.594;8.734;2023-11-22T00:55:42;8.05;;;5.05;;
83761;SDS011;73752;49.594;8.734;2023-11-22T00:58:07;9.73;;;4.97;;
83761;SDS011;73752;49.594;8.734;2023-11-22T01:00:33;8.77;;;4.93;;
83761;SDS011;73752;49.594;8.734;2023-11-22T01:02:58;7.68;;;5.60;;
83761;SDS011;73752;49.594;8.734;2023-11-22T01:05:23;10.07;;;4.88;;
83761;SDS011;73752;49.594;8.734;2023-11-22T01:07:49;8.55;;;4.07;;
83761;SDS011;73752;49.594;8.734;2023-11-22T01:10:15;5.18;;;4.25;;
83761;SDS011;73752;49.594;8.734;2023-11-22T01:12:40;7.60;;;4.28;;
83761;SDS011;73752;49.594;8.734;2023-11-22T01:15:06;7.75;;;4.75;;
83761;SDS011;73752;49.594;8.734;2023-11-22T01:17:32;6.70;;;4.95;;
83761;SDS011;73752;49.594;8.734;2023-11-22T01:19:59;10.07;;;4.72;;
83761;SDS011;73752;49.594;8.734;2023-11-22T01:22:24;9.48;;;4.32;;
83761;SDS011;73752;49.594;8.734;2023-11-22T01:24:50;7.25;;;4.82;;
83761;SDS011;73752;49.594;8.734;2023-11-22T01:27:15;8.90;;;4.47;;
83761;SDS011;73752;49.594;8.734;2023-11-22T01:29:40;6.88;;;4.57;;
83761;SDS011;73752;49.594;8.734;2023-11-22T01:32:06;7.30;;;5.35;;
83761;SDS011;73752;49.594;8.734;2023-11-22T01:34:33;7.40;;;5.32;;
83761;SDS011;73752;49.594;8.734;2023-11-22T01:36:59;7.70;;;4.70;;
83761;SDS011;73752;49.594;8.734;2023-11-22T01:39:24;7.45;;;4.78;;
83761;SDS011;73752;49.594;8.734;2023-11-22T01:41:52;6.28;;;4.57;;
83761;SDS011;73752;49.594;8.734;2023-11-22T01:44:23;6.82;;;4.60;;
83761;SDS011;73752;49.594;8.734;2023-11-22T01:46:49;8.68;;;4.57;;
83761;SDS011;73752;49.594;8.734;2023-11-22T01:49:16;6.40;;;4.00;;
83761;SDS011;73752;49.594;8.734;2023-11-22T01:51:43;5.45;;;3.92;;
83761;SDS011;73752;49.594;8.734;2023-11-22T01:54:10;5.28;;;3.63;;
83761;SDS011;73752;49.594;8.734;2023-11-22T01:56:40;5.10;;;3.60;;
83761;SDS011;73752;49.594;8.734;2023-11-22T01:59:06;4.72;;;3.42;;
83761;SDS011;73752;49.594;8.734;2023-11-22T02:01:33;5.32;;;3.55;;
83761;SDS011;73752;49.594;8.734;2023-11-22T02:04:00;4.65;;;3.53;;
83761;SDS011;73752;49.594;8.734;2023-11-22T02:06:26;6.25;;;3.97;;
83761;SDS011;73752;49.594;8.734;2023-11-22T02:08:54;7.47;;;3.83;;
83761;SDS011;73752;49.594;8.734;2023-11-22T02:11:21;8.82;;;3.97;;
83761;SDS011;73752;49.594;8.734;2023-11-22T02:13:50;9.90;;;4.00;;
83761;SDS011;73752;49.594;8.734;2023-11-22T02:16:17;6.22;;;3.60;;
83761;SDS011;73752;49.594;8.734;2023-11-22T02:18:45;7.30;;;3.58;;
83761;SDS011;73752;49.594;8.734;2023-11-22T02:21:17;4.70;;;3.38;;
83761;SDS011;73752;49.594;8.734;2023-11-22T02:23:46;9.95;;;4.03;;
83761;SDS011;73752;49.594;8.734;2023-11-22T02:26:12;6.43;;;3.80;;
83761;SDS011;73752;49.594;8.734;2023-11-22T02:28:46;8.13;;;3.80;;
83761;SDS011;73752;49.594;8.734;2023-11-22T02:31:15;7.75;;;4.35;;
83761;SDS011;73752;49.594;8.734;2023-11-22T02:33:42;6.03;;;3.25;;
83761;SDS011;73752;49.594;8.734;2023-11-22T02:36:09;8.05;;;4.60;;
83761;SDS011;73752;49.594;8.734;2023-11-22T02:38:38;8.05;;;3.83;;
83761;SDS011;73752;49.594;8.734;2023-11-22T02:41:06;6.55;;;3.80;;
83761;SDS011;73752;49.594;8.734;2023-11-22T02:43:34;9.50;;;3.80;;
83761;SDS011;73752;49.594;8.734;2023-11-22T02:46:01;6.70;;;3.30;;
83761;SDS011;73752;49.594;8.734;2023-11-22T02:48:29;6.05;;;3.60;;
83761;SDS011;73752;49.594;8.734;2023-11-22T02:50:55;6.57;;;3.90;;
83761;SDS011;73752;49.594;8.734;2023-11-22T02:53:21;12.55;;;3.88;;
83761;SDS011;73752;49.594;8.734;2023-11-22T02:55:48;6.10;;;3.33;;
83761;SDS011;73752;49.594;8.734;2023-11-22T02:58:14;7.50;;;3.60;;
83761;SDS011;73752;49.594;8.734;2023-11-22T03:00:41;6.57;;;4.40;;
83761;SDS011;73752;49.594;8.734;2023-11-22T03:03:09;8.15;;;3.90;;
83761;SDS011;73752;49.594;8.734;2023-11-22T03:05:37;5.32;;;3.40;;
83761;SDS011;73752;49.594;8.734;2023-11-22T03:08:03;5.70;;;3.40;;
83761;SDS011;73752;49.594;8.734;2023-11-22T03:10:31;7.28;;;3.63;;
83761;SDS011;73752;49.594;8.734;2023-11-22T03:12:58;6.85;;;3.67;;
83761;SDS011;73752;49.594;8.734;2023-11-22T03:15:24;6.95;;;4.13;;
83761;SDS011;73752;49.594;8.734;2023-11-22T03:17:51;8.52;;;3.72;;
83761;SDS011;73752;49.594;8.734;2023-11-22T03:20:17;5.20;;;3.58;;
83761;SDS011;73752;49.594;8.734;2023-11-22T03:22:44;10.02;;;3.97;;
83761;SDS011;73752;49.594;8.734;2023-11-22T03:25:11;4.90;;;3.63;;
83761;SDS011;73752;49.594;8.734;2023-11-22T03:27:37;9.23;;;3.88;;
83761;SDS011;73752;49.594;8.734;2023-11-22T03:30:04;5.75;;;3.80;;
83761;SDS011;73752;49.594;8.734;2023-11-22T03:32:39;6.07;;;3.70;;
83761;SDS011;73752;49.594;8.734;2023-11-22T03:35:07;6.15;;;4.10;;
83761;SDS011;73752;49.594;8.734;2023-11-22T03:37:34;7.93;;;4.28;;
83761;SDS011;73752;49.594;8.734;2023-11-22T03:40:01;9.95;;;3.92;;
83761;SDS011;73752;49.594;8.734;2023-11-22T03:42:28;9.65;;;4.10;;
83761;SDS011;73752;49.594;8.734;2023-11-22T03:44:55;7.47;;;4.10;;
83761;SDS011;73752;49.594;8.734;2023-11-22T03:47:21;8.90;;;4.07;;
83761;SDS011;73752;49.594;8.734;2023-11-22T03:49:48;6.22;;;4.30;;
83761;SDS011;73752;49.594;8.734;2023-11-22T03:52:18;7.72;;;4.50;;
83761;SDS011;73752;49.594;8.734;2023-11-22T03:54:45;6.13;;;4.22;;
83761;SDS011;73752;49.594;8.734;2023-11-22T03:57:12;5.55;;;3.58;;
83761;SDS011;73752;49.594;8.734;2023-11-22T03:59:40;7.95;;;4.18;;
83761;SDS011;73752;49.594;8.734;2023-11-22T04:02:08;11.90;;;4.47;;
83761;SDS011;73752;49.594;8.734;2023-11-22T04:04:36;7.63;;;4.28;;
83761;SDS011;73752;49.594;8.734;2023-11-22T04:07:06;6.15;;;4.18;;
83761;SDS011;73752;49.594;8.734;2023-11-22T04:09:33;8.45;;;3.90;;
83761;SDS011;73752;49.594;8.734;2023-11-22T04:12:00;7.68;;;4.40;;
83761;SDS011;73752;49.594;8.734;2023-11-22T04:14:26;8.13;;;4.50;;
83761;SDS011;73752;49.594;8.734;2023-11-22T04:16:56;6.22;;;4.43;;
83761;SDS011;73752;49.594;8.734;2023-11-22T04:19:22;5.90;;;4.05;;
83761;SDS011;73752;49.594;8.734;2023-11-22T04:21:50;8.02;;;4.43;;
83761;SDS011;73752;49.594;8.734;2023-11-22T04:24:16;8.65;;;4.28;;
83761;SDS011;73752;49.594;8.734;2023-11-22T04:26:43;7.35;;;4.68;;
83761;SDS011;73752;49.594;8.734;2023-11-22T04:29:09;5.90;;;4.10;;
83761;SDS011;73752;49.594;8.734;2023-11-22T04:31:36;10.00;;;4.57;;
83761;SDS011;73752;49.594;8.734;2023-11-22T04:34:03;11.45;;;5.03;;
83761;SDS011;73752;49.594;8.734;2023-11-22T04:36:29;9.80;;;4.45;;
83761;SDS011;73752;49.594;8.734;2023-11-22T04:38:56;6.53;;;3.83;;
83761;SDS011;73752;49.594;8.734;2023-11-22T04:41:22;7.85;;;4.07;;
83761;SDS011;73752;49.594;8.734;2023-11-22T04:43:50;6.50;;;3.72;;
83761;SDS011;73752;49.594;8.734;2023-11-22T04:46:17;5.05;;;3.42;;
83761;SDS011;73752;49.594;8.734;2023-11-22T04:48:44;8.65;;;3.92;;
83761;SDS011;73752;49.594;8.734;2023-11-22T04:51:14;5.65;;;3.08;;
83761;SDS011;73752;49.594;8.734;2023-11-22T04:53:41;5.88;;;3.60;;
83761;SDS011;73752;49.594;8.734;2023-11-22T04:56:09;6.65;;;3.88;;
83761;SDS011;73752;49.594;8.734;2023-11-22T04:58:36;7.18;;;3.55;;
83761;SDS011;73752;49.594;8.734;2023-11-22T05:01:03;4.70;;;3.40;;
83761;SDS011;73752;49.594;8.734;2023-11-22T05:03:30;6.15;;;3.63;;
83761;SDS011;73752;49.594;8.734;2023-11-22T05:05:59;6.03;;;3.63;;
83761;SDS011;73752;49.594;8.734;2023-11-22T05:08:54;7.20;;;3.80;;
83761;SDS011;73752;49.594;8.734;2023-11-22T05:11:39;8.27;;;3.33;;
83761;SDS011;73752;49.594;8.734;2023-11-22T06:03:24;7.60;;;3.90;;
83761;SDS011;73752;49.594;8.734;2023-11-22T06:05:51;6.68;;;3.47;;
83761;SDS011;73752;49.594;8.734;2023-11-22T06:08:19;9.82;;;4.20;;
83761;SDS011;73752;49.594;8.734;2023-11-22T06:10:46;6.28;;;3.92;;
83761;SDS011;73752;49.594;8.734;2023-11-22T06:13:12;6.35;;;3.65;;
83761;SDS011;73752;49.594;8.734;2023-11-22T06:15:39;5.60;;;3.92;;
83761;SDS011;73752;49.594;8.734;2023-11-22T06:33:55;8.07;;;4.80;;
83761;SDS011;73752;49.594;8.734;2023-11-22T06:36:26;8.57;;;4.95;;
83761;SDS011;73752;49.594;8.734;2023-11-22T06:38:55;8.93;;;4.25;;
83761;SDS011;73752;49.594;8.734;2023-11-22T06:41:24;13.00;;;4.90;;
83761;SDS011;73752;49.594;8.734;2023-11-22T06:43:51;9.65;;;4.35;;
83761;SDS011;73752;49.594;8.734;2023-11-22T06:46:18;7.88;;;4.97;;
83761;SDS011;73752;49.594;8.734;2023-11-22T06:48:45;8.13;;;4.68;;
83761;SDS011;73752;49.594;8.734;2023-11-22T06:51:13;8.55;;;5.10;;
83761;SDS011;73752;49.594;8.734;2023-11-22T06:53:40;8.10;;;4.80;;
83761;SDS011;73752;49.594;8.734;2023-11-22T06:56:07;8.27;;;5.32;;
83761;SDS011;73752;49.594;8.734;2023-11-22T06:58:37;13.52;;;5.00;;
83761;SDS011;73752;49.594;8.734;2023-11-22T07:01:03;8.48;;;5.20;;
83761;SDS011;73752;49.594;8.734;2023-11-22T07:03:29;9.38;;;5.00;;
83761;SDS011;73752;49.594;8.734;2023-11-22T07:05:59;8.80;;;5.03;;
83761;SDS011;73752;49.594;8.734;2023-11-22T07:08:25;11.57;;;5.80;;
83761;SDS011;73752;49.594;8.734;2023-11-22T07:10:52;12.70;;;5.88;;
83761;SDS011;73752;49.594;8.734;2023-11-22T07:13:17;10.55;;;6.05;;
83761;SDS011;73752;49.594;8.734;2023-11-22T07:15:43;9.02;;;5.68;;
83761;SDS011;73752;49.594;8.734;2023-11-22T07:18:08;10.20;;;5.97;;
83761;SDS011;73752;49.594;8.734;2023-11-22T07:20:35;15.32;;;6.45;;
83761;SDS011;73752;49.594;8.734;2023-11-22T07:23:00;10.40;;;6.38;;
83761;SDS011;73752;49.594;8.734;2023-11-22T07:25:27;8.57;;;5.70;;
83761;SDS011;73752;49.594;8.734;2023-11-22T07:27:54;9.55;;;5.50;;
83761;SDS011;73752;49.594;8.734;2023-11-22T07:30:28;9.68;;;5.45;;
83761;SDS011;73752;49.594;8.734;2023-11-22T07:32:55;12.48;;;5.25;;
83761;SDS011;73752;49.594;8.734;2023-11-22T07:35:21;9.82;;;5.13;;
83761;SDS011;73752;49.594;8.734;2023-11-22T07:37:48;7.68;;;5.28;;
83761;SDS011;73752;49.594;8.734;2023-11-22T07:40:15;9.70;;;4.88;;
83761;SDS011;73752;49.594;8.734;2023-11-22T07:42:44;8.45;;;4.75;;
83761;SDS011;73752;49.594;8.734;2023-11-22T07:45:10;11.18;;;4.63;;
83761;SDS011;73752;49.594;8.734;2023-11-22T08:10:52;12.63;;;5.93;;
83761;SDS011;73752;49.594;8.734;2023-11-22T08:13:24;12.27;;;5.13;;
83761;SDS011;73752;49.594;8.734;2023-11-22T08:15:58;9.50;;;4.78;;
83761;SDS011;73752;49.594;8.734;2023-11-22T08:18:33;11.27;;;5.93;;
83761;SDS011;73752;49.594;8.734;2023-11-22T08:20:59;8.88;;;4.68;;
83761;SDS011;73752;49.594;8.734;2023-11-22T08:23:25;12.57;;;7.07;;
83761;SDS011;73752;49.594;8.734;2023-11-22T08:25:53;27.85;;;12.30;;
83761;SDS011;73752;49.594;8.734;2023-11-22T08:28:22;13.43;;;6.50;;
83761;SDS011;73752;49.594;8.734;2023-11-22T08:30:47;11.20;;;6.72;;
83761;SDS011;73752;49.594;8.734;2023-11-22T08:33:12;10.27;;;4.95;;
83761;SDS011;73752;49.594;8.734;2023-11-22T08:35:40;10.85;;;5.35;;
83761;SDS011;73752;49.594;8.734;2023-11-22T08:38:06;11.27;;;6.70;;
83761;SDS011;73752;49.594;8.734;2023-11-22T08:40:34;11.68;;;6.95;;
83761;SDS011;73752;49.594;8.734;2023-11-22T08:43:02;12.00;;;5.82;;
83761;SDS011;73752;49.594;8.734;2023-11-22T08:45:29;10.68;;;5.35;;
83761;SDS011;73752;49.594;8.734;2023-11-22T08:47:56;10.60;;;5.32;;
83761;SDS011;73752;49.594;8.734;2023-11-22T08:50:22;8.90;;;5.25;;
83761;SDS011;73752;49.594;8.734;2023-11-22T08:52:48;10.35;;;5.35;;
83761;SDS011;73752;49.594;8.734;2023-11-22T08:55:17;9.35;;;5.55;;
83761;SDS011;73752;49.594;8.734;2023-11-22T08:57:45;7.65;;;5.40;;
83761;SDS011;73752;49.594;8.734;2023-11-22T09:00:12;7.30;;;4.60;;
83761;SDS011;73752;49.594;8.734;2023-11-22T09:02:39;8.05;;;4.53;;
83761;SDS011;73752;49.594;8.734;2023-11-22T09:05:05;8.45;;;4.68;;
83761;SDS011;73752;49.594;8.734;2023-11-22T09:07:32;7.90;;;4.50;;
83761;SDS011;73752;49.594;8.734;2023-11-22T09:09:59;8.70;;;4.38;;
83761;SDS011;73752;49.594;8.734;2023-11-22T09:12:25;5.53;;;3.75;;
83761;SDS011;73752;49.594;8.734;2023-11-22T09:14:54;5.93;;;4.05;;
83761;SDS011;73752;49.594;8.734;2023-11-22T09:20:24;7.75;;;4.13;;
83761;SDS011;73752;49.594;8.734;2023-11-22T09:22:51;8.13;;;3.92;;
83761;SDS011;73752;49.594;8.734;2023-11-22T09:25:25;6.90;;;4.47;;
83761;SDS011;73752;49.594;8.734;2023-11-22T09:27:53;8.93;;;4.22;;
83761;SDS011;73752;49.594;8.734;2023-11-22T09:30:26;8.80;;;4.45;;
83761;SDS011;73752;49.594;8.734;2023-11-22T09:33:10;5.80;;;3.92;;
83761;SDS011;73752;49.594;8.734;2023-11-22T09:35:39;11.15;;;4.30;;
83761;SDS011;73752;49.594;8.734;2023-11-22T09:38:05;6.85;;;4.43;;
83761;SDS011;73752;49.594;8.734;2023-11-22T09:40:35;6.05;;;3.95;;
83761;SDS011;73752;49.594;8.734;2023-11-22T09:43:01;8.35;;;3.95;;
83761;SDS011;73752;49.594;8.734;2023-11-22T09:45:28;7.47;;;3.90;;
83761;SDS011;73752;49.594;8.734;2023-11-22T09:47:57;6.47;;;4.03;;
83761;SDS011;73752;49.594;8.734;2023-11-22T09:53:36;5.32;;;3.92;;
83761;SDS011;73752;49.594;8.734;2023-11-22T09:56:10;8.02;;;4.25;;
83761;SDS011;73752;49.594;8.734;2023-11-22T09:58:39;8.23;;;4.50;;
83761;SDS011;73752;49.594;8.734;2023-11-22T10:01:08;7.60;;;4.85;;
83761;SDS011;73752;49.594;8.734;2023-11-22T10:03:38;5.63;;;4.40;;
83761;SDS011;73752;49.594;8.734;2023-11-22T10:06:04;8.30;;;4.53;;
83761;SDS011;73752;49.594;8.734;2023-11-22T10:08:32;8.48;;;4.35;;
83761;SDS011;73752;49.594;8.734;2023-11-22T10:10:58;6.25;;;4.15;;
83761;SDS011;73752;49.594;8.734;2023-11-22T10:13:24;9.93;;;4.90;;
83761;SDS011;73752;49.594;8.734;2023-11-22T10:15:50;9.52;;;5.03;;
83761;SDS011;73752;49.594;8.734;2023-11-22T10:18:17;6.88;;;4.47;;
83761;SDS011;73752;49.594;8.734;2023-11-22T10:20:44;8.05;;;4.25;;
83761;SDS011;73752;49.594;8.734;2023-11-22T10:23:15;7.40;;;4.55;;
83761;SDS011;73752;49.594;8.734;2023-11-22T10:25:46;9.00;;;4.57;;
83761;SDS011;73752;49.594;8.734;2023-11-22T10:28:14;8.88;;;4.45;;
83761;SDS011;73752;49.594;8.734;2023-11-22T10:30:40;8.77;;;4.40;;
83761;SDS011;73752;49.594;8.734;2023-11-22T10:33:06;7.00;;;4.35;;
83761;SDS011;73752;49.594;8.734;2023-11-22T10:35:31;8.65;;;4.63;;
83761;SDS011;73752;49.594;8.734;2023-11-22T10:37:59;8.57;;;4.93;;
83761;SDS011;73752;49.594;8.734;2023-11-22T10:40:28;8.02;;;4.60;;
83761;SDS011;73752;49.594;8.734;2023-11-22T10:42:54;8.05;;;4.05;;
83761;SDS011;73752;49.594;8.734;2023-11-22T10:45:21;6.32;;;4.18;;
83761;SDS011;73752;49.594;8.734;2023-11-22T10:47:46;7.30;;;4.00;;
83761;SDS011;73752;49.594;8.734;2023-11-22T10:50:14;9.43;;;4.75;;
83761;SDS011;73752;49.594;8.734;2023-11-22T10:52:41;9.38;;;4.57;;
83761;SDS011;73752;49.594;8.734;2023-11-22T10:55:08;7.15;;;4.28;;
83761;SDS011;73752;49.594;8.734;2023-11-22T10:57:40;10.30;;;5.32;;
83761;SDS011;73752;49.594;8.734;2023-11-22T11:00:09;8.77;;;5.15;;
83761;SDS011;73752;49.594;8.734;2023-11-22T11:02:41;8.48;;;4.97;;
83761;SDS011;73752;49.594;8.734;2023-11-22T11:05:17;9.77;;;5.35;;
83761;SDS011;73752;49.594;8.734;2023-11-22T11:07:53;10.15;;;5.97;;
83761;SDS011;73752;49.594;8.734;2023-11-22T11:10:27;7.40;;;4.18;;
83761;SDS011;73752;49.594;8.734;2023-11-22T11:12:53;11.50;;;6.53;;
83761;SDS011;73752;49.594;8.734;2023-11-22T11:15:19;11.65;;;5.35;;
83761;SDS011;73752;49.594;8.734;2023-11-22T11:17:46;9.65;;;4.35;;
83761;SDS011;73752;49.594;8.734;2023-11-22T11:20:15;7.65;;;4.22;;
83761;SDS011;73752;49.594;8.734;2023-11-22T11:22:42;6.97;;;4.47;;
83761;SDS011;73752;49.594;8.734;2023-11-22T11:25:08;6.25;;;4.22;;
83761;SDS011;73752;49.594;8.734;2023-11-22T11:27:33;7.10;;;4.03;;
83761;SDS011;73752;49.594;8.734;2023-11-22T11:30:01;6.85;;;4.00;;
83761;SDS011;73752;49.594;8.734;2023-11-22T11:32:46;8.40;;;4.10;;
83761;SDS011;73752;49.594;8.734;2023-11-22T11:35:11;6.43;;;4.57;;
83761;SDS011;73752;49.594;8.734;2023-11-22T11:37:37;7.20;;;4.25;;
83761;SDS011;73752;49.594;8.734;2023-11-22T11:40:24;6.10;;;4.70;;
83761;SDS011;73752;49.594;8.734;2023-11-22T11:42:56;8.02;;;4.53;;
83761;SDS011;73752;49.594;8.734;2023-11-22T11:45:22;10.05;;;6.35;;
83761;SDS011;73752;49.594;8.734;2023-11-22T11:47:47;11.25;;;6.55;;
83761;SDS011;73752;49.594;8.734;2023-11-22T11:50:12;7.95;;;5.60;;
83761;SDS011;73752;49.594;8.734;2023-11-22T11:52:38;10.95;;;6.93;;
83761;SDS011;73752;49.594;8.734;2023-11-22T11:55:05;9.30;;;5.13;;
83761;SDS011;73752;49.594;8.734;2023-11-22T11:57:31;10.40;;;4.63;;
83761;SDS011;73752;49.594;8.734;2023-11-22T11:59:57;5.57;;;4.30;;
83761;SDS011;73752;49.594;8.734;2023-11-22T12:02:23;10.00;;;5.50;;
83761;SDS011;73752;49.594;8.734;2023-11-22T12:04:48;7.82;;;4.70;;
83761;SDS011;73752;49.594;8.734;2023-11-22T12:07:13;7.65;;;5.15;;
83761;SDS011;73752;49.594;8.734;2023-11-22T12:09:39;7.80;;;5.03;;
83761;SDS011;73752;49.594;8.734;2023-11-22T12:12:04;8.13;;;4.88;;
83761;SDS011;73752;49.594;8.734;2023-11-22T12:14:30;6.13;;;4.43;;
83761;SDS011;73752;49.594;8.734;2023-11-22T12:16:56;10.13;;;4.38;;
83761;SDS011;73752;49.594;8.734;2023-11-22T12:19:24;6.88;;;3.72;;
83761;SDS011;73752;49.594;8.734;2023-11-22T12:21:52;9.65;;;6.00;;
83761;SDS011;73752;49.594;8.734;2023-11-22T12:24:18;9.95;;;6.03;;
83761;SDS011;73752;49.594;8.734;2023-11-22T12:26:45;14.30;;;7.32;;
83761;SDS011;73752;49.594;8.734;2023-11-22T12:29:14;12.68;;;6.78;;
83761;SDS011;73752;49.594;8.734;2023-11-22T12:31:45;9.48;;;5.45;;
83761;SDS011;73752;49.594;8.734;2023-11-22T12:34:14;6.32;;;4.20;;
83761;SDS011;73752;49.594;8.734;2023-11-22T12:36:40;6.97;;;4.15;;
83761;SDS011;73752;49.594;8.734;2023-11-22T12:39:08;8.00;;;3.80;;
83761;SDS011;73752;49.594;8.734;2023-11-22T12:41:41;9.70;;;5.45;;
83761;SDS011;73752;49.594;8.734;2023-11-22T12:44:07;12.63;;;5.65;;
83761;SDS011;73752;49.594;8.734;2023-11-22T12:46:51;11.68;;;7.07;;
83761;SDS011;73752;49.594;8.734;2023-11-22T12:49:24;6.80;;;4.55;;
83761;SDS011;73752;49.594;8.734;2023-11-22T12:51:51;8.70;;;4.57;;
83761;SDS011;73752;49.594;8.734;2023-11-22T12:54:18;10.88;;;5.97;;
83761;SDS011;73752;49.594;8.734;2023-11-22T12:56:46;9.30;;;5.45;;
83761;SDS011;73752;49.594;8.734;2023-11-22T12:59:15;8.98;;;4.60;;
83761;SDS011;73752;49.594;8.734;2023-11-22T13:01:41;9.63;;;5.30;;
83761;SDS011;73752;49.594;8.734;2023-11-22T13:04:06;7.47;;;4.57;;
83761;SDS011;73752;49.594;8.734;2023-11-22T13:06:32;8.73;;;5.05;;
83761;SDS011;73752;49.594;8.734;2023-11-22T13:08:57;8.23;;;5.43;;
83761;SDS011;73752;49.594;8.734;2023-11-22T13:11:22;8.82;;;4.85;;
83761;SDS011;73752;49.594;8.734;2023-11-22T13:13:49;9.05;;;4.28;;
83761;SDS011;73752;49.594;8.734;2023-11-22T13:16:15;7.43;;;5.15;;
83761;SDS011;73752;49.594;8.734;2023-11-22T13:18:41;8.63;;;5.07;;
83761;SDS011;73752;49.594;8.734;2023-11-22T13:21:07;6.55;;;4.35;;
83761;SDS011;73752;49.594;8.734;2023-11-22T13:23:32;9.32;;;4.95;;
83761;SDS011;73752;49.594;8.734;2023-11-22T13:25:58;4.70;;;3.58;;
83761;SDS011;73752;49.594;8.734;2023-11-22T13:28:23;5.85;;;3.90;;
83761;SDS011;73752;49.594;8.734;2023-11-22T13:30:50;4.85;;;3.72;;
83761;SDS011;73752;49.594;8.734;2023-11-22T13:33:16;6.05;;;3.92;;
83761;SDS011;73752;49.594;8.734;2023-11-22T13:35:41;8.30;;;4.70;;
83761;SDS011;73752;49.594;8.734;2023-11-22T13:38:07;7.03;;;4.20;;
83761;SDS011;73752;49.594;8.734;2023-11-22T13:40:36;8.70;;;5.30;;
83761;SDS011;73752;49.594;8.734;2023-11-22T13:43:04;6.72;;;4.30;;
83761;SDS011;73752;49.594;8.734;2023-11-22T13:45:30;6.65;;;3.35;;
83761;SDS011;73752;49.594;8.734;2023-11-22T13:47:56;5.90;;;4.07;;
83761;SDS011;73752;49.594;8.734;2023-11-22T13:50:32;4.55;;;3.35;;
83761;SDS011;73752;49.594;8.734;2023-11-22T13:52:57;6.88;;;3.60;;
83761;SDS011;73752;49.594;8.734;2023-11-22T13:55:23;5.82;;;3.83;;
83761;SDS011;73752;49.594;8.734;2023-11-22T13:57:53;4.45;;;3.53;;
83761;SDS011;73752;49.594;8.734;2023-11-22T14:00:20;8.20;;;5.13;;
83761;SDS011;73752;49.594;8.734;2023-11-22T14:02:52;5.15;;;4.07;;
83761;SDS011;73752;49.594;8.734;2023-11-22T14:05:21;7.00;;;3.95;;
83761;SDS011;73752;49.594;8.734;2023-11-22T14:07:47;5.85;;;3.92;;
83761;SDS011;73752;49.594;8.734;2023-11-22T14:10:14;5.05;;;3.67;;
83761;SDS011;73752;49.594;8.734;2023-11-22T14:12:41;6.32;;;4.00;;
83761;SDS011;73752;49.594;8.734;2023-11-22T14:15:07;4.90;;;3.45;;
83761;SDS011;73752;49.594;8.734;2023-11-22T14:17:33;6.43;;;3.63;;
83761;SDS011;73752;49.594;8.734;2023-11-22T14:19:58;5.80;;;4.05;;
83761;SDS011;73752;49.594;8.734;2023-11-22T14:22:24;7.85;;;3.80;;
83761;SDS011;73752;49.594;8.734;2023-11-22T14:24:49;5.80;;;3.90;;
83761;SDS011;73752;49.594;8.734;2023-11-22T14:27:16;5.55;;;3.97;;
83761;SDS011;73752;49.594;8.734;2023-11-22T14:29:42;5.32;;;3.83;;
83761;SDS011;73752;49.594;8.734;2023-11-22T14:32:08;6.65;;;4.63;;
83761;SDS011;73752;49.594;8.734;2023-11-22T14:34:33;5.60;;;4.20;;
83761;SDS011;73752;49.594;8.734;2023-11-22T14:36:59;5.32;;;3.70;;
83761;SDS011;73752;49.594;8.734;2023-11-22T14:39:24;6.38;;;3.97;;
83761;SDS011;73752;49.594;8.734;2023-11-22T14:41:51;4.80;;;3.50;;
83761;SDS011;73752;49.594;8.734;2023-11-22T14:44:16;7.35;;;3.95;;
83761;SDS011;73752;49.594;8.734;2023-11-22T14:46:43;9.75;;;6.03;;
83761;SDS011;73752;49.594;8.734;2023-11-22T14:49:08;4.70;;;3.60;;
83761;SDS011;73752;49.594;8.734;2023-11-22T14:51:33;6.63;;;4.10;;
83761;SDS011;73752;49.594;8.734;2023-11-22T14:53:59;6.03;;;3.80;;
83761;SDS011;73752;49.594;8.734;2023-11-22T14:56:24;6.13;;;4.13;;
83761;SDS011;73752;49.594;8.734;2023-11-22T14:58:50;6.40;;;4.28;;
83761;SDS011;73752;49.594;8.734;2023-11-22T15:01:22;6.07;;;4.10;;
83761;SDS011;73752;49.594;8.734;2023-11-22T15:03:48;9.43;;;4.57;;
83761;SDS011;73752;49.594;8.734;2023-11-22T15:06:14;15.60;;;8.20;;
83761;SDS011;73752;49.594;8.734;2023-11-22T15:08:40;7.90;;;4.97;;
83761;SDS011;73752;49.594;8.734;2023-11-22T15:11:05;7.10;;;4.45;;
83761;SDS011;73752;49.594;8.734;2023-11-22T15:13:33;5.45;;;3.97;;
83761;SDS011;73752;49.594;8.734;2023-11-22T15:15:59;5.47;;;3.92;;
83761;SDS011;73752;49.594;8.734;2023-11-22T15:18:24;7.35;;;4.57;;
83761;SDS011;73752;49.594;8.734;2023-11-22T15:20:51;5.80;;;4.28;;
83761;SDS011;73752;49.594;8.734;2023-11-22T15:23:17;7.57;;;4.40;;
83761;SDS011;73752;49.594;8.734;2023-11-22T15:25:44;7.43;;;4.15;;
83761;SDS011;73752;49.594;8.734;2023-11-22T15:28:09;7.75;;;4.57;;
83761;SDS011;73752;49.594;8.734;2023-11-22T15:30:36;6.80;;;4.85;;
83761;SDS011;73752;49.594;8.734;2023-11-22T15:33:01;7.28;;;4.57;;
83761;SDS011;73752;49.594;8.734;2023-11-22T15:35:27;8.65;;;4.45;;
83761;SDS011;73752;49.594;8.734;2023-11-22T15:41:33;9.90;;;5.85;;
83761;SDS011;73752;49.594;8.734;2023-11-22T17:42:45;15.50;;;9.70;;
83761;SDS011;73752;49.594;8.734;2023-11-22T17:45:11;19.10;;;9.95;;
83761;SDS011;73752;49.594;8.734;2023-11-22T17:47:36;18.60;;;10.50;;
83761;SDS011;73752;49.594;8.734;2023-11-22T17:50:02;15.45;;;9.60;;
83761;SDS011;73752;49.594;8.734;2023-11-22T17:52:29;16.02;;;9.48;;
83761;SDS011;73752;49.594;8.734;2023-11-22T17:54:54;15.75;;;9.45;;
83761;SDS011;73752;49.594;8.734;2023-11-22T17:57:21;18.13;;;8.82;;
83761;SDS011;73752;49.594;8.734;2023-11-22T17:59:46;13.23;;;8.68;;
83761;SDS011;73752;49.594;8.734;2023-11-22T18:02:12;15.35;;;9.23;;
83761;SDS011;73752;49.594;8.734;2023-11-22T18:04:37;14.68;;;9.52;;
83761;SDS011;73752;49.594;8.734;2023-11-22T18:07:04;16.67;;;10.30;;
83761;SDS011;73752;49.594;8.734;2023-11-22T18:09:29;16.92;;;10.15;;
83761;SDS011;73752;49.594;8.734;2023-11-22T18:11:54;18.48;;;11.07;;
83761;SDS011;73752;49.594;8.734;2023-11-22T18:14:22;19.30;;;11.73;;
83761;SDS011;73752;49.594;8.734;2023-11-22T18:16:49;16.13;;;10.70;;
83761;SDS011;73752;49.594;8.734;2023-11-22T18:19:14;19.17;;;11.25;;
83761;SDS011;73752;49.594;8.734;2023-11-22T18:21:39;21.10;;;11.48;;
83761;SDS011;73752;49.594;8.734;2023-11-22T18:24:05;18.85;;;11.43;;